Time;durP1;ratioP1;P1;durP2;ratioP2;P2;SDS_P1;SDS_P2;PMS_P1;PMS_P2;Temp;Humidity;BMP_temperature;BMP_pressure;BME280_temperature;BME280_humidity;BME280_pressure;Samples;Min_cycle;Max_cycle;Signal;HPM_P1;HPM_P2
2022/01/24 00:01:23;;;;;;;14.48;10.00;;;7.80;99.90;;;;;;5027740;28;21001;-75
2022/01/24 00:03:56;;;;;;;16.45;11.13;;;7.70;99.90;;;;;;5029343;28;20060;-76
2022/01/24 00:06:25;;;;;;;18.27;11.93;;;7.70;99.90;;;;;;5028294;28;20153;-76
2022/01/24 00:08:51;;;;;;;18.20;11.60;;;7.60;99.90;;;;;;5028868;28;20179;-77
2022/01/24 00:11:21;;;;;;;19.00;11.77;;;7.50;99.90;;;;;;5030201;28;20041;-80
2022/01/24 00:27:03;;;;;;;20.40;12.52;;;7.50;99.90;;;;;;5047903;28;20078;-78
2022/01/24 00:29:29;;;;;;;19.20;12.13;;;7.50;99.90;;;;;;5050019;28;20029;-78
2022/01/24 00:31:56;;;;;;;18.83;12.10;;;7.40;99.90;;;;;;5044064;28;20370;-75
2022/01/24 00:34:24;;;;;;;19.75;12.65;;;7.30;99.90;;;;;;5046735;28;20037;-77
2022/01/24 00:36:52;;;;;;;21.45;12.75;;;7.30;99.90;;;;;;5038670;28;20039;-73
2022/01/24 00:39:19;;;;;;;21.70;13.30;;;7.20;99.90;;;;;;5045108;28;20048;-73
2022/01/24 00:41:57;;;;;;;24.67;13.23;;;7.30;99.90;;;;;;5041382;28;20052;-75
2022/01/24 00:46:58;;;;;;;17.27;11.55;;;7.30;99.90;;;;;;5043881;28;20029;-72
2022/01/24 00:55:01;;;;;;;23.45;13.98;;;7.40;99.90;;;;;;5017222;28;20033;-76
2022/01/24 00:57:27;;;;;;;21.98;13.23;;;7.30;99.90;;;;;;5046072;28;20051;-76
2022/01/24 00:59:54;;;;;;;23.40;13.70;;;7.20;99.90;;;;;;5041160;28;20136;-73
2022/01/24 01:02:20;;;;;;;21.52;13.93;;;7.20;99.90;;;;;;5057702;28;20037;-73
2022/01/24 01:18:26;;;;;;;19.95;12.55;;;7.00;99.90;;;;;;5040817;28;20091;-73
2022/01/24 01:23:19;;;;;;;21.02;11.75;;;7.20;99.90;;;;;;5036356;28;20033;-72
2022/01/24 01:25:47;;;;;;;20.60;12.35;;;7.20;99.90;;;;;;5041087;28;20508;-73
2022/01/24 01:28:15;;;;;;;18.48;12.07;;;7.20;99.90;;;;;;5043300;28;20060;-74
2022/01/24 01:30:46;;;;;;;20.95;11.45;;;7.20;99.90;;;;;;5056548;28;20034;-75
2022/01/24 01:33:55;;;;;;;17.98;11.85;;;7.10;99.90;;;;;;5047255;28;20048;-73
2022/01/24 01:36:16;;;;;;;18.50;11.48;;;7.00;99.90;;;;;;5038702;28;20124;-77
2022/01/24 01:55:16;;;;;;;19.30;10.20;;;7.10;99.90;;;;;;5033338;28;20178;-73
2022/01/24 01:57:41;;;;;;;;;;;7.20;99.90;;;;;;5041242;28;20037;-73
2022/01/24 02:00:10;;;;;;;17.25;10.25;;;7.00;99.90;;;;;;5036062;28;19921;-74
2022/01/24 02:02:36;;;;;;;17.48;10.57;;;7.10;99.90;;;;;;5040879;28;20045;-72
2022/01/24 02:05:02;;;;;;;17.25;9.77;;;7.00;99.90;;;;;;5045861;28;20091;-74
2022/01/24 02:07:28;;;;;;;14.70;10.38;;;6.90;99.90;;;;;;5040417;28;20357;-75
2022/01/24 02:09:54;;;;;;;15.63;10.82;;;6.90;99.90;;;;;;5038254;28;20034;-73
2022/01/24 02:12:24;;;;;;;15.48;9.88;;;6.90;99.90;;;;;;5038262;28;20034;-72
2022/01/24 02:14:57;;;;;;;21.38;11.70;;;6.80;99.90;;;;;;5027333;28;20037;-76
2022/01/24 02:17:34;;;;;;;18.10;10.57;;;6.80;99.90;;;;;;5039023;28;20060;-73
2022/01/24 02:22:46;;;;;;;16.83;10.77;;;6.90;99.90;;;;;;5040685;28;20561;-75
2022/01/24 02:25:25;;;;;;;16.35;10.23;;;7.00;99.90;;;;;;5041030;28;20045;-73
2022/01/24 02:27:57;;;;;;;17.52;9.85;;;6.90;99.90;;;;;;5037756;28;20092;-73
2022/01/24 02:32:57;;;;;;;15.18;9.52;;;6.90;99.90;;;;;;5041989;28;20044;-73
2022/01/24 02:35:23;;;;;;;17.55;9.30;;;6.80;99.90;;;;;;5037736;28;20525;-73
2022/01/24 02:37:49;;;;;;;17.73;10.20;;;6.70;99.90;;;;;;5036479;28;20068;-77
2022/01/24 02:40:18;;;;;;;15.25;9.68;;;6.70;99.90;;;;;;5041883;28;20430;-74
2022/01/24 02:48:27;;;;;;;12.70;7.78;;;6.70;99.90;;;;;;5036984;28;20404;-76
2022/01/24 02:51:17;;;;;;;13.57;7.88;;;6.80;99.90;;;;;;5037689;28;20040;-73
2022/01/24 02:53:43;;;;;;;16.27;8.20;;;6.80;99.90;;;;;;5040417;28;20647;-75
2022/01/24 02:56:09;;;;;;;12.15;6.55;;;6.90;99.90;;;;;;5038028;28;20049;-73
2022/01/24 02:58:36;;;;;;;11.35;6.75;;;7.00;99.90;;;;;;5022415;28;20041;-73
2022/01/24 03:01:07;;;;;;;11.63;6.15;;;6.90;99.90;;;;;;5040601;28;20037;-76
2022/01/24 03:03:36;;;;;;;12.60;6.45;;;6.90;99.90;;;;;;5043485;28;20072;-73
2022/01/24 03:06:05;;;;;;;11.52;6.32;;;6.90;99.90;;;;;;5058497;28;20041;-73
2022/01/24 03:08:31;;;;;;;9.10;5.97;;;6.90;99.90;;;;;;5038987;28;20033;-72
2022/01/24 03:10:59;;;;;;;10.13;6.07;;;6.90;99.90;;;;;;5042688;28;20409;-74
2022/01/24 03:15:55;;;;;;;10.80;5.90;;;6.90;99.90;;;;;;5041271;28;20040;-74
2022/01/24 03:18:22;;;;;;;8.75;5.68;;;7.00;99.90;;;;;;5046602;28;20067;-72
2022/01/24 03:20:49;;;;;;;10.27;5.68;;;7.00;99.90;;;;;;5039818;28;20033;-72
2022/01/24 03:23:19;;;;;;;10.13;6.00;;;6.90;99.90;;;;;;5039287;28;20466;-73
2022/01/24 03:25:47;;;;;;;13.20;7.30;;;6.90;99.90;;;;;;5038268;28;20049;-75
2022/01/24 03:28:14;;;;;;;12.63;6.13;;;6.90;99.90;;;;;;5022818;28;20116;-73
2022/01/24 03:30:44;;;;;;;9.55;5.65;;;6.90;99.90;;;;;;5042470;28;20044;-73
2022/01/24 03:33:10;;;;;;;10.13;5.90;;;6.90;99.90;;;;;;5042172;28;20576;-72
2022/01/24 03:35:40;;;;;;;9.65;5.97;;;7.00;99.90;;;;;;5033350;28;20075;-72
2022/01/24 03:38:06;;;;;;;12.25;6.05;;;7.00;99.90;;;;;;5040342;28;20041;-74
2022/01/24 03:40:32;;;;;;;9.73;5.68;;;7.00;99.90;;;;;;5039569;28;20151;-74
2022/01/24 03:42:58;;;;;;;9.82;6.00;;;7.00;99.90;;;;;;5038482;28;20132;-73
2022/01/24 03:45:38;;;;;;;11.20;6.55;;;6.90;99.90;;;;;;5044661;28;20079;-74
2022/01/24 03:48:12;;;;;;;13.20;6.10;;;6.80;99.90;;;;;;5050853;28;20091;-76
2022/01/24 03:50:53;;;;;;;10.27;6.00;;;6.90;99.90;;;;;;5038937;28;20041;-72
2022/01/24 03:53:19;;;;;;;8.02;5.50;;;6.80;99.90;;;;;;5038229;28;20109;-77
2022/01/24 03:55:45;;;;;;;9.32;5.75;;;6.80;99.90;;;;;;5038194;28;20978;-75
2022/01/24 03:58:12;;;;;;;10.15;6.22;;;6.70;99.90;;;;;;5038339;28;20334;-74
2022/01/24 04:00:41;;;;;;;12.07;6.55;;;6.70;99.90;;;;;;5044080;28;20107;-73
2022/01/24 04:03:07;;;;;;;12.60;6.80;;;6.60;99.90;;;;;;5040740;28;20137;-77
2022/01/24 04:05:33;;;;;;;14.40;7.78;;;6.70;99.90;;;;;;5046720;28;20556;-72
2022/01/24 04:07:59;;;;;;;15.57;8.80;;;6.70;99.90;;;;;;5046889;28;20045;-73
2022/01/24 04:10:25;;;;;;;14.88;8.70;;;6.70;99.90;;;;;;5031428;28;20048;-76
2022/01/24 04:12:53;;;;;;;17.02;9.98;;;6.60;99.90;;;;;;5043501;28;20044;-76
2022/01/24 04:18:43;;;;;;;14.40;8.68;;;6.50;99.90;;;;;;5042194;28;20110;-77
2022/01/24 04:23:47;;;;;;;16.42;9.38;;;6.50;99.90;;;;;;5040984;28;20768;-72
2022/01/24 04:26:13;;;;;;;14.85;9.98;;;6.40;99.90;;;;;;5043793;28;20075;-73
2022/01/24 04:28:39;;;;;;;17.92;10.35;;;6.30;99.90;;;;;;5038686;28;20032;-75
2022/01/24 04:31:05;;;;;;;17.17;9.77;;;6.30;99.90;;;;;;5040689;28;20429;-72
2022/01/24 04:33:32;;;;;;;15.55;10.10;;;6.30;99.90;;;;;;5036726;28;20075;-72
2022/01/24 04:35:59;;;;;;;17.05;9.43;;;6.20;99.90;;;;;;5047016;28;20346;-77
2022/01/24 04:38:26;;;;;;;18.50;9.48;;;6.10;99.90;;;;;;5041638;28;20036;-72
2022/01/24 04:40:58;;;;;;;11.85;7.50;;;6.10;99.90;;;;;;5041457;28;20045;-77
2022/01/24 04:51:34;;;;;;;11.73;6.57;;;6.20;99.90;;;;;;5039047;28;20106;-76
2022/01/24 04:54:14;;;;;;;16.65;8.23;;;6.20;99.90;;;;;;5038957;28;20119;-74
2022/01/24 04:56:38;;;;;;;12.68;8.55;;;6.20;99.90;;;;;;5040014;28;20037;-77
2022/01/24 04:59:08;;;;;;;23.88;11.65;;;6.20;99.90;;;;;;5022344;28;20155;-76
2022/01/24 05:01:37;;;;;;;17.50;10.93;;;6.20;99.90;;;;;;5041647;28;20098;-76
2022/01/24 05:04:04;;;;;;;21.20;12.48;;;6.20;99.90;;;;;;5046597;28;20411;-73
2022/01/24 05:06:30;;;;;;;20.88;12.57;;;6.10;99.90;;;;;;5047432;28;20037;-73
2022/01/24 05:08:56;;;;;;;18.38;11.93;;;6.10;99.90;;;;;;5040797;28;20143;-74
2022/01/24 05:11:34;;;;;;;17.58;12.18;;;6.10;99.90;;;;;;5042389;28;20650;-72
2022/01/24 05:25:09;;;;;;;22.10;11.85;;;6.00;99.90;;;;;;5044474;28;20060;-73
2022/01/24 05:27:36;;;;;;;17.08;11.57;;;6.00;99.90;;;;;;5039378;28;20115;-72
2022/01/24 05:30:03;;;;;;;17.08;11.23;;;6.00;99.90;;;;;;5042490;28;20029;-75
2022/01/24 05:32:29;;;;;;;18.80;11.38;;;6.00;99.90;;;;;;5030965;28;20108;-73
2022/01/24 05:34:55;;;;;;;18.77;10.93;;;6.00;99.90;;;;;;5017631;28;20045;-73
2022/01/24 05:37:21;;;;;;;18.65;11.75;;;6.00;99.90;;;;;;5039010;28;20056;-76
2022/01/24 05:39:48;;;;;;;18.98;11.68;;;6.10;99.90;;;;;;5038982;28;20036;-73
2022/01/24 05:42:17;;;;;;;19.40;11.98;;;6.10;99.90;;;;;;5043245;28;20118;-72
2022/01/24 05:44:44;;;;;;;17.83;12.07;;;6.00;99.90;;;;;;5040162;28;20049;-73
2022/01/24 05:47:10;;;;;;;19.27;12.48;;;6.00;99.90;;;;;;5045594;28;20167;-76
2022/01/24 05:49:37;;;;;;;18.58;11.88;;;5.90;99.90;;;;;;5045082;28;20116;-73
2022/01/24 05:52:09;;;;;;;17.67;11.90;;;5.90;99.90;;;;;;5026022;28;20037;-76
2022/01/24 05:54:40;;;;;;;16.45;11.15;;;5.90;99.90;;;;;;5038548;28;20499;-74
2022/01/24 05:57:07;;;;;;;22.23;12.60;;;5.90;99.90;;;;;;5041729;28;20346;-77
2022/01/24 05:59:33;;;;;;;20.17;12.65;;;5.90;99.90;;;;;;5031393;28;20037;-73
2022/01/24 06:01:59;;;;;;;19.30;11.63;;;5.90;99.90;;;;;;5053335;28;20041;-74
2022/01/24 06:04:25;;;;;;;19.98;11.43;;;5.90;99.90;;;;;;5043165;28;20035;-77
2022/01/24 06:06:51;;;;;;;18.95;11.90;;;5.90;99.90;;;;;;5042454;28;20033;-73
2022/01/24 06:09:19;;;;;;;20.23;12.48;;;5.90;99.90;;;;;;5028007;28;20029;-74
2022/01/24 06:11:45;;;;;;;21.50;12.23;;;5.80;99.90;;;;;;5061068;28;20033;-75
2022/01/24 06:14:13;;;;;;;20.52;12.45;;;5.80;99.90;;;;;;5038696;28;20158;-73
2022/01/24 06:16:40;;;;;;;18.92;11.93;;;5.80;99.90;;;;;;5042886;28;20445;-73
2022/01/24 06:19:06;;;;;;;21.20;12.10;;;5.80;99.90;;;;;;5035758;28;20520;-76
2022/01/24 06:21:32;;;;;;;22.10;12.40;;;5.80;99.90;;;;;;5043438;28;20519;-75
2022/01/24 06:23:59;;;;;;;20.10;12.00;;;5.80;99.90;;;;;;5040094;28;20040;-74
2022/01/24 06:26:26;;;;;;;19.30;11.77;;;5.80;99.90;;;;;;5040290;28;20735;-76
2022/01/24 06:28:52;;;;;;;19.83;11.63;;;5.80;99.90;;;;;;5036129;28;20493;-73
2022/01/24 06:31:19;;;;;;;17.80;10.75;;;5.80;99.90;;;;;;5024996;28;20140;-73
2022/01/24 06:33:48;;;;;;;17.65;11.27;;;5.70;99.90;;;;;;5044300;28;20116;-76
2022/01/24 06:36:15;;;;;;;16.05;10.40;;;5.80;99.90;;;;;;5039331;28;20928;-75
2022/01/24 06:38:42;;;;;;;18.35;11.43;;;5.80;99.90;;;;;;5037293;28;20461;-72
2022/01/24 06:41:08;;;;;;;19.88;11.07;;;5.70;99.90;;;;;;5038854;28;20509;-76
2022/01/24 06:43:34;;;;;;;15.68;10.15;;;5.60;99.90;;;;;;5033305;28;20644;-75
2022/01/24 06:46:01;;;;;;;18.75;11.60;;;5.70;99.90;;;;;;5029288;28;20045;-73
2022/01/24 06:48:27;;;;;;;17.52;11.32;;;5.60;99.90;;;;;;5038810;28;20037;-76
2022/01/24 06:50:53;;;;;;;18.38;11.50;;;5.70;99.90;;;;;;5036423;28;20038;-73
2022/01/24 06:53:19;;;;;;;21.42;11.20;;;5.80;99.90;;;;;;5038366;28;20030;-73
2022/01/24 06:55:46;;;;;;;20.73;12.18;;;5.80;99.90;;;;;;5045370;28;20462;-74
2022/01/24 06:58:13;;;;;;;18.00;11.80;;;5.70;99.90;;;;;;5043843;28;20043;-74
2022/01/24 07:00:39;;;;;;;17.40;10.63;;;5.70;99.90;;;;;;5035122;28;20053;-76
2022/01/24 07:03:05;;;;;;;14.10;9.88;;;5.70;99.90;;;;;;5039578;28;20033;-73
2022/01/24 07:05:32;;;;;;;15.85;10.43;;;5.80;99.90;;;;;;5041824;28;20099;-73
2022/01/24 07:07:59;;;;;;;17.23;10.57;;;5.80;99.90;;;;;;5041210;28;20037;-76
2022/01/24 07:10:27;;;;;;;17.98;10.60;;;5.90;99.90;;;;;;5033933;28;20130;-73
2022/01/24 07:12:53;;;;;;;15.57;10.50;;;5.90;99.90;;;;;;5049800;28;20033;-73
2022/01/24 07:15:22;;;;;;;18.10;10.90;;;5.90;99.90;;;;;;5022364;28;20052;-74
2022/01/24 07:20:18;;;;;;;20.27;11.07;;;6.00;99.90;;;;;;5042769;28;20044;-75
2022/01/24 07:22:45;;;;;;;14.55;9.98;;;6.00;99.90;;;;;;5041720;28;20114;-77
2022/01/24 07:25:11;;;;;;;16.17;10.57;;;6.00;99.90;;;;;;5036338;28;20033;-73
2022/01/24 07:27:38;;;;;;;17.38;10.30;;;6.10;99.90;;;;;;5041366;28;20118;-77
2022/01/24 07:30:06;;;;;;;18.33;10.43;;;6.00;99.90;;;;;;5039276;28;20890;-73
2022/01/24 07:32:34;;;;;;;19.02;9.65;;;6.10;99.90;;;;;;5036149;28;20034;-77
2022/01/24 07:35:00;;;;;;;14.43;9.10;;;6.10;99.90;;;;;;5055349;28;20602;-77
2022/01/24 07:37:29;;;;;;;17.15;10.27;;;6.20;99.90;;;;;;5038521;28;20037;-73
2022/01/24 07:39:57;;;;;;;17.60;9.55;;;6.30;99.90;;;;;;5038159;28;20018;-75
2022/01/24 07:42:39;;;;;;;14.23;9.45;;;6.40;99.90;;;;;;5030069;28;20116;-75
2022/01/24 07:45:05;;;;;;;14.10;9.55;;;6.50;99.90;;;;;;5042499;28;20041;-74
2022/01/24 07:47:32;;;;;;;16.88;8.90;;;6.60;99.90;;;;;;5041855;28;20036;-75
2022/01/24 07:49:58;;;;;;;18.85;9.60;;;6.70;99.90;;;;;;5041376;28;20361;-75
2022/01/24 07:52:24;;;;;;;16.70;10.27;;;6.80;99.90;;;;;;5038889;28;20033;-76
2022/01/24 07:54:50;;;;;;;15.10;9.57;;;6.90;99.90;;;;;;5045254;28;20047;-77
2022/01/24 07:57:16;;;;;;;16.17;9.70;;;6.90;99.90;;;;;;5036345;28;20025;-74
2022/01/24 07:59:43;;;;;;;16.83;9.70;;;7.00;99.90;;;;;;5040609;28;20055;-74
2022/01/24 08:02:09;;;;;;;14.65;9.48;;;7.10;99.90;;;;;;5035709;28;20029;-75
2022/01/24 08:04:35;;;;;;;18.88;9.93;;;7.20;99.90;;;;;;5048186;28;20783;-74
2022/01/24 08:07:02;;;;;;;19.88;9.75;;;7.20;99.90;;;;;;5024975;28;20038;-75
2022/01/24 08:09:28;;;;;;;19.13;10.27;;;7.30;99.90;;;;;;5024424;28;20120;-74
2022/01/24 08:11:54;;;;;;;16.20;9.98;;;7.40;99.90;;;;;;5042113;28;20448;-73
2022/01/24 08:14:23;;;;;;;15.95;10.80;;;7.50;99.90;;;;;;5037902;28;20025;-77
2022/01/24 08:16:49;;;;;;;18.75;10.30;;;7.60;99.90;;;;;;5043131;28;20114;-77
2022/01/24 08:19:15;;;;;;;16.40;10.63;;;7.70;99.90;;;;;;5038924;28;20034;-75
2022/01/24 08:21:43;;;;;;;17.35;11.00;;;7.70;99.90;;;;;;5038753;28;20039;-75
2022/01/24 08:24:09;;;;;;;16.58;10.52;;;7.70;99.90;;;;;;5037899;28;20064;-75
2022/01/24 08:26:35;;;;;;;18.38;10.88;;;7.80;99.90;;;;;;5044572;28;20482;-73
2022/01/24 08:29:01;;;;;;;16.00;10.10;;;7.90;99.90;;;;;;5041723;28;20108;-73
2022/01/24 08:31:27;;;;;;;18.45;10.45;;;8.00;99.90;;;;;;5037011;28;20052;-75
2022/01/24 08:33:53;;;;;;;14.95;10.50;;;8.20;99.90;;;;;;5043843;28;20474;-76
2022/01/24 08:36:19;;;;;;;15.07;10.43;;;9.10;99.90;;;;;;5038060;28;20033;-75
2022/01/24 08:38:47;;;;;;;14.85;9.45;;;10.50;99.90;;;;;;5036185;28;20384;-74
2022/01/24 08:41:21;;;;;;;14.15;9.48;;;11.40;99.90;;;;;;5035519;28;20056;-73
2022/01/24 08:46:15;;;;;;;17.83;10.65;;;9.80;99.90;;;;;;5036884;28;20036;-76
2022/01/24 08:48:42;;;;;;;16.73;10.23;;;9.40;99.90;;;;;;5045962;28;20127;-74
2022/01/24 08:51:08;;;;;;;13.77;10.05;;;9.20;99.90;;;;;;5039559;28;20080;-78
2022/01/24 08:53:35;;;;;;;16.13;10.05;;;9.00;99.90;;;;;;5033132;28;20540;-74
2022/01/24 08:56:04;;;;;;;14.93;10.18;;;9.00;99.90;;;;;;5049774;28;20735;-73
2022/01/24 08:58:33;;;;;;;17.65;10.52;;;8.90;99.90;;;;;;5041954;28;20046;-76
2022/01/24 09:00:59;;;;;;;13.38;9.82;;;9.00;99.90;;;;;;5054366;28;20034;-74
2022/01/24 09:03:32;;;;;;;16.38;10.38;;;9.00;99.90;;;;;;5044399;28;20034;-78
2022/01/24 09:06:00;;;;;;;16.13;9.55;;;9.10;99.90;;;;;;5042943;28;20070;-78
2022/01/24 09:08:26;;;;;;;16.75;10.27;;;9.30;99.90;;;;;;5039101;28;21111;-75
2022/01/24 09:10:54;;;;;;;16.25;10.77;;;9.20;99.90;;;;;;5030050;28;20056;-76
2022/01/24 09:13:21;;;;;;;16.25;10.50;;;9.30;99.90;;;;;;5029527;28;20116;-77
2022/01/24 09:15:47;;;;;;;16.55;11.15;;;9.40;99.90;;;;;;5033743;28;20041;-74
2022/01/24 09:18:15;;;;;;;16.02;10.70;;;9.30;99.90;;;;;;5033850;28;20040;-77
2022/01/24 09:20:42;;;;;;;16.48;10.95;;;9.20;99.90;;;;;;5030659;28;20030;-76
2022/01/24 09:23:09;;;;;;;17.52;10.13;;;9.30;99.90;;;;;;5028553;28;20128;-74
2022/01/24 09:25:36;;;;;;;19.13;11.20;;;9.30;99.90;;;;;;5028655;28;20040;-75
2022/01/24 09:28:04;;;;;;;14.60;9.73;;;9.40;99.90;;;;;;4999834;28;20083;-74
2022/01/24 09:30:31;;;;;;;17.92;10.52;;;9.60;99.90;;;;;;5047734;28;20101;-75
2022/01/24 09:33:00;;;;;;;16.77;10.05;;;9.90;99.90;;;;;;5025615;28;20131;-75
2022/01/24 09:35:29;;;;;;;21.48;10.85;;;10.10;99.90;;;;;;5026221;28;20705;-74
2022/01/24 09:37:55;;;;;;;18.83;10.38;;;10.30;99.90;;;;;;5030620;28;20100;-77
2022/01/24 09:40:23;;;;;;;13.02;9.90;;;10.30;99.90;;;;;;5023191;28;20527;-76
2022/01/24 09:42:52;;;;;;;19.45;10.57;;;10.40;99.90;;;;;;5030064;28;20056;-75
2022/01/24 09:45:18;;;;;;;17.50;10.30;;;10.60;99.90;;;;;;5032135;28;20055;-77
2022/01/24 09:47:45;;;;;;;16.27;9.75;;;11.00;99.90;;;;;;5032637;28;20099;-73
2022/01/24 09:50:14;;;;;;;18.10;9.13;;;12.00;99.90;;;;;;5021409;28;20068;-78
2022/01/24 09:52:44;;;;;;;15.25;10.30;;;12.40;99.90;;;;;;5025205;28;20037;-76
2022/01/24 09:55:13;;;;;;;16.73;9.55;;;12.50;99.90;;;;;;5025117;28;20902;-78
2022/01/24 09:57:41;;;;;;;15.48;8.63;;;12.70;99.90;;;;;;5030321;28;20488;-73
2022/01/24 10:00:10;;;;;;;12.68;8.80;;;12.20;99.90;;;;;;5011182;28;20044;-75
2022/01/24 10:02:36;;;;;;;14.13;8.25;;;12.00;99.90;;;;;;5029063;28;20040;-74
2022/01/24 10:05:19;;;;;;;15.15;8.57;;;12.80;99.90;;;;;;5029656;28;20030;-73
2022/01/24 10:07:53;;;;;;;14.82;9.38;;;12.80;99.90;;;;;;5022662;28;20034;-74
2022/01/24 10:10:35;;;;;;;14.52;8.20;;;12.40;99.90;;;;;;5036894;28;20045;-73
2022/01/24 10:16:33;;;;;;;15.30;8.63;;;11.70;99.90;;;;;;5029976;28;20146;-78
2022/01/24 10:19:02;;;;;;;13.48;8.70;;;11.50;99.90;;;;;;5030846;28;20080;-73
2022/01/24 10:21:35;;;;;;;16.60;10.05;;;11.40;99.90;;;;;;5027226;28;20037;-75
2022/01/24 10:24:01;;;;;;;17.92;9.52;;;11.40;99.90;;;;;;5037824;28;20472;-76
2022/01/24 10:26:27;;;;;;;16.00;9.68;;;11.80;99.90;;;;;;5016775;28;20049;-73
2022/01/24 10:28:53;;;;;;;15.77;9.65;;;12.10;99.90;;;;;;5024473;28;20050;-74
2022/01/24 10:31:24;;;;;;;15.05;10.15;;;12.20;99.90;;;;;;5029461;28;20590;-79
2022/01/24 10:34:12;;;;;;;17.00;9.63;;;12.10;99.90;;;;;;5019768;28;20052;-73
2022/01/24 10:36:46;;;;;;;12.63;9.65;;;11.90;99.90;;;;;;5040068;28;20036;-75
2022/01/24 10:42:28;;;;;;;14.88;9.85;;;12.70;99.90;;;;;;5025315;28;20055;-76
2022/01/24 10:44:55;;;;;;;15.48;9.68;;;12.70;99.90;;;;;;5026092;28;20107;-75
2022/01/24 10:47:33;;;;;;;15.25;10.27;;;13.50;99.90;;;;;;5020739;28;20106;-77
2022/01/24 10:50:06;;;;;;;15.52;10.25;;;14.20;99.80;;;;;;5044407;28;20395;-75
2022/01/24 10:52:34;;;;;;;14.65;10.90;;;14.80;99.20;;;;;;5019037;28;20120;-75
2022/01/24 10:55:16;;;;;;;19.63;10.50;;;15.00;98.40;;;;;;5028090;28;20077;-76
2022/01/24 10:57:44;;;;;;;14.77;10.50;;;15.40;98.00;;;;;;5028260;28;20163;-77
2022/01/24 11:00:25;;;;;;;14.38;9.07;;;15.80;97.80;;;;;;5022413;28;20044;-75
2022/01/24 11:02:53;;;;;;;15.98;9.63;;;16.10;97.40;;;;;;5027300;28;20041;-75
2022/01/24 11:05:27;;;;;;;17.27;9.10;;;16.50;96.70;;;;;;5005769;28;20053;-78
2022/01/24 11:07:58;;;;;;;12.88;7.82;;;16.20;96.60;;;;;;5028094;28;20091;-76
2022/01/24 11:10:34;;;;;;;15.25;8.30;;;16.60;96.50;;;;;;5022804;28;20039;-78
2022/01/24 11:13:05;;;;;;;11.13;7.75;;;17.00;96.10;;;;;;5016254;28;20452;-74
2022/01/24 11:15:33;;;;;;;12.60;8.03;;;17.30;96.20;;;;;;5023355;28;20036;-78
2022/01/24 11:18:01;;;;;;;11.13;7.25;;;17.30;96.00;;;;;;5028565;28;20052;-73
2022/01/24 11:20:34;;;;;;;11.50;7.70;;;17.30;95.90;;;;;;5019672;28;20033;-77
2022/01/24 11:23:05;;;;;;;9.50;6.47;;;17.70;95.80;;;;;;5008157;28;20040;-74
2022/01/24 11:25:37;;;;;;;7.47;5.60;;;18.00;95.30;;;;;;5027077;28;20045;-75
2022/01/24 11:28:07;;;;;;;10.20;6.43;;;18.40;95.10;;;;;;5022854;28;20045;-76
2022/01/24 11:30:51;;;;;;;11.73;6.65;;;18.30;94.80;;;;;;5025452;28;20047;-73
2022/01/24 11:33:22;;;;;;;10.60;6.60;;;18.60;94.80;;;;;;5025967;28;20041;-77
2022/01/24 11:35:54;;;;;;;7.68;5.57;;;19.00;94.50;;;;;;5026418;28;20568;-75
2022/01/24 11:38:33;;;;;;;9.15;5.50;;;19.70;94.10;;;;;;5008355;28;20033;-77
2022/01/24 11:41:20;;;;;;;13.05;6.47;;;20.10;93.60;;;;;;5028234;28;20052;-74
2022/01/24 11:43:51;;;;;;;11.60;5.82;;;20.10;93.20;;;;;;5022889;28;20029;-77
2022/01/24 11:46:52;;;;;;;10.48;6.00;;;19.60;93.50;;;;;;5022975;28;20404;-73
2022/01/24 11:49:27;;;;;;;11.13;6.40;;;20.20;92.80;;;;;;4971919;28;20034;-76
2022/01/24 11:52:06;;;;;;;9.95;6.65;;;20.50;92.40;;;;;;5024763;28;20108;-76
2022/01/24 11:55:02;;;;;;;9.68;6.25;;;20.40;92.30;;;;;;5021198;28;20039;-78
2022/01/24 11:57:49;;;;;;;9.13;5.38;;;20.40;92.40;;;;;;5022666;28;20182;-73
2022/01/24 12:00:29;;;;;;;11.85;6.15;;;20.30;92.20;;;;;;5024310;28;20068;-75
2022/01/24 12:03:02;;;;;;;8.68;5.88;;;20.40;92.20;;;;;;5024088;28;20124;-75
2022/01/24 12:05:39;;;;;;;8.02;5.60;;;20.70;91.90;;;;;;5022062;28;20558;-75
2022/01/24 12:08:07;;;;;;;9.98;6.03;;;21.00;91.60;;;;;;5023516;28;20108;-75
2022/01/24 12:10:37;;;;;;;12.30;7.05;;;19.40;92.10;;;;;;5030581;28;20516;-74
2022/01/24 12:13:13;;;;;;;9.30;6.57;;;20.50;91.90;;;;;;5013709;28;20056;-75
2022/01/24 12:15:39;;;;;;;10.75;6.20;;;21.70;91.10;;;;;;5026444;28;20140;-76
2022/01/24 12:18:18;;;;;;;9.55;6.32;;;21.50;90.30;;;;;;5010147;28;20071;-74
2022/01/24 12:20:52;;;;;;;10.65;6.43;;;20.20;91.10;;;;;;5024757;28;20193;-73
2022/01/24 12:23:25;;;;;;;12.27;6.00;;;19.90;92.10;;;;;;5023202;28;20080;-74
2022/01/24 12:26:14;;;;;;;12.15;6.00;;;21.00;91.10;;;;;;5029052;28;20037;-75
2022/01/24 12:28:44;;;;;;;14.20;5.90;;;21.20;90.80;;;;;;5040793;28;20045;-74
2022/01/24 12:31:29;;;;;;;12.23;5.55;;;19.90;91.30;;;;;;5026532;28;20106;-74
2022/01/24 12:33:55;;;;;;;9.15;6.38;;;18.40;92.30;;;;;;5043779;28;20040;-78
2022/01/24 12:36:52;;;;;;;9.45;6.45;;;18.00;93.30;;;;;;5029885;28;20041;-76
2022/01/24 12:39:45;;;;;;;10.20;7.47;;;17.30;93.70;;;;;;5026774;28;20041;-76
2022/01/24 12:42:26;;;;;;;11.60;6.93;;;17.00;94.30;;;;;;5029265;28;20033;-76
2022/01/24 12:47:24;;;;;;;12.02;7.00;;;19.10;92.60;;;;;;5029590;28;20139;-76
2022/01/24 12:49:51;;;;;;;11.38;7.55;;;19.60;92.00;;;;;;5024331;28;20044;-78
2022/01/24 12:52:25;;;;;;;11.55;7.43;;;18.20;92.90;;;;;;5036668;28;20037;-74
2022/01/24 12:54:58;;;;;;;13.45;8.07;;;17.50;94.00;;;;;;5030638;28;20507;-73
2022/01/24 12:57:37;;;;;;;14.02;7.63;;;17.60;94.10;;;;;;5036287;28;20063;-75
2022/01/24 13:00:16;;;;;;;15.15;8.15;;;17.30;94.20;;;;;;5043745;28;20030;-74
2022/01/24 13:02:42;;;;;;;12.55;8.25;;;17.60;94.30;;;;;;5031708;28;20044;-76
2022/01/24 13:05:28;;;;;;;13.35;8.25;;;17.70;94.00;;;;;;5037379;28;20037;-79
2022/01/24 13:07:58;;;;;;;12.73;8.38;;;17.70;94.00;;;;;;5027780;28;20041;-76
2022/01/24 13:10:28;;;;;;;14.23;9.30;;;17.10;94.30;;;;;;5020486;28;20069;-77
2022/01/24 13:13:06;;;;;;;13.63;9.07;;;16.50;94.60;;;;;;5031571;28;20045;-77
2022/01/24 13:21:17;;;;;;;14.20;8.55;;;18.40;92.70;;;;;;5021221;28;20035;-76
2022/01/24 13:24:00;;;;;;;18.23;8.90;;;16.80;93.70;;;;;;5013197;28;20045;-77
2022/01/24 13:26:27;;;;;;;16.60;8.98;;;16.30;94.60;;;;;;5012251;28;20132;-76
2022/01/24 13:29:04;;;;;;;12.02;6.63;;;16.20;94.90;;;;;;5021637;28;20038;-76
2022/01/24 13:31:30;;;;;;;11.40;6.05;;;16.40;93.60;;;;;;5013857;28;20052;-78
2022/01/24 13:33:57;;;;;;;16.23;5.93;;;18.50;92.00;;;;;;5017692;28;20059;-75
2022/01/24 13:36:24;;;;;;;9.13;5.95;;;17.20;92.00;;;;;;5025167;28;20080;-79
2022/01/24 13:38:52;;;;;;;11.52;6.85;;;17.50;92.60;;;;;;5030240;28;20037;-74
2022/01/24 13:41:27;;;;;;;10.18;6.80;;;18.30;92.00;;;;;;5032574;28;20503;-75
2022/01/24 13:44:03;;;;;;;9.55;6.45;;;19.70;90.80;;;;;;5033091;28;20053;-79
2022/01/24 13:46:43;;;;;;;9.02;6.63;;;19.90;90.30;;;;;;5025472;28;20037;-75
2022/01/24 13:49:13;;;;;;;13.07;7.38;;;21.00;89.10;;;;;;5024872;28;20067;-80
2022/01/24 13:51:43;;;;;;;11.75;7.20;;;21.60;88.10;;;;;;5042548;28;20029;-77
2022/01/24 13:54:28;;;;;;;11.98;8.10;;;21.20;88.20;;;;;;5029335;28;20087;-78
2022/01/24 13:56:56;;;;;;;14.07;9.23;;;21.60;89.10;;;;;;5027248;28;20041;-77
2022/01/24 13:59:25;;;;;;;12.80;8.88;;;21.20;90.40;;;;;;5027722;28;20052;-74
2022/01/24 14:02:03;;;;;;;12.82;8.75;;;21.20;90.30;;;;;;5021062;28;20033;-74
2022/01/24 14:04:41;;;;;;;14.68;9.48;;;21.40;90.40;;;;;;5019817;28;20502;-76
2022/01/24 14:07:08;;;;;;;14.25;8.82;;;21.70;90.10;;;;;;5028153;28;20253;-74
2022/01/24 14:09:49;;;;;;;12.40;8.25;;;21.00;90.40;;;;;;5007857;28;20127;-73
2022/01/24 14:12:18;;;;;;;13.23;9.27;;;21.00;90.70;;;;;;5045014;28;20836;-80
2022/01/24 14:14:55;;;;;;;15.32;9.30;;;20.30;91.60;;;;;;5029397;28;20045;-80
2022/01/24 14:20:09;;;;;;;19.90;9.75;;;19.70;92.10;;;;;;5027935;28;20084;-78
2022/01/24 14:22:46;;;;;;;12.23;9.05;;;19.50;92.10;;;;;;5032149;28;20421;-76
2022/01/24 14:25:25;;;;;;;16.80;9.10;;;19.90;92.20;;;;;;5029653;28;20037;-80
2022/01/24 14:27:54;;;;;;;17.10;9.95;;;20.30;92.20;;;;;;5031563;28;20484;-77
2022/01/24 14:30:31;;;;;;;13.50;10.15;;;20.00;92.40;;;;;;5027924;28;20040;-76
2022/01/24 14:33:07;;;;;;;20.52;11.13;;;20.50;92.60;;;;;;5028572;28;20041;-75
2022/01/24 14:35:48;;;;;;;15.13;8.75;;;21.00;91.70;;;;;;5032191;28;20446;-78
2022/01/24 14:38:37;;;;;;;15.27;7.72;;;21.20;91.20;;;;;;5031335;28;20037;-74
2022/01/24 14:41:09;;;;;;;13.90;7.75;;;21.00;91.30;;;;;;5028198;28;20040;-76
2022/01/24 14:46:29;;;;;;;17.83;8.07;;;21.10;90.50;;;;;;5024607;28;20132;-77
2022/01/24 14:49:03;;;;;;;12.13;7.07;;;21.20;90.80;;;;;;5023199;28;20045;-76
2022/01/24 14:51:34;;;;;;;14.23;7.18;;;21.30;90.80;;;;;;5021085;28;20546;-74
2022/01/24 14:54:03;;;;;;;13.80;8.43;;;21.40;90.50;;;;;;5026769;28;20045;-78